createdAt,value
2019-05-23T00:03:27.683Z,100672.70
2019-05-23T00:08:50.922Z,100680.11
2019-05-23T00:13:57.984Z,100679.58
2019-05-23T00:19:04.581Z,100676.50
2019-05-23T00:24:10.861Z,100672.48
2019-05-23T00:29:17.799Z,100664.37
2019-05-23T00:34:24.706Z,100662.91
2019-05-23T00:39:31.438Z,100671.26
2019-05-23T00:44:38.299Z,100655.58
2019-05-23T00:49:43.782Z,100661.08
2019-05-23T00:54:50.329Z,100661.08
2019-05-23T00:59:57.896Z,100658.45
2019-05-23T01:05:04.998Z,100636.38
2019-05-23T01:10:12.640Z,100650.90
2019-05-23T01:15:18.836Z,100646.53
2019-05-23T01:20:30.307Z,100641.44
2019-05-23T01:25:36.769Z,100641.44
2019-05-23T01:30:50.679Z,100645.25
2019-05-23T01:35:56.950Z,100637.50
2019-05-23T01:41:03.003Z,100633.22
2019-05-23T01:46:10.755Z,100640.53
2019-05-23T01:51:16.716Z,100644.94
2019-05-23T01:56:23.663Z,100645.99
2019-05-23T02:01:29.212Z,100645.99
2019-05-23T02:06:34.576Z,100648.45
2019-05-23T02:11:41.386Z,100642.37
2019-05-23T02:16:47.881Z,100642.37
2019-05-23T02:21:53.504Z,100643.41
2019-05-23T02:26:59.922Z,100644.98
2019-05-23T02:32:07.308Z,100642.11
2019-05-23T02:37:17.778Z,100642.11
2019-05-23T02:42:27.856Z,100637.03
2019-05-23T02:47:38.748Z,100636.45
2019-05-23T02:52:48.124Z,100637.77
2019-05-23T02:57:55.566Z,100630.67
2019-05-23T03:03:03.822Z,100629.95
2019-05-23T03:08:10.205Z,100623.80
2019-05-23T03:13:17.038Z,100634.44
2019-05-23T03:18:24.100Z,100634.44
2019-05-23T03:23:29.721Z,100636.92
2019-05-23T03:28:42.596Z,100636.92
2019-05-23T03:33:49.632Z,100638.21
2019-05-23T03:38:56.086Z,100638.12
2019-05-23T03:44:03.309Z,100639.95
2019-05-23T03:49:10.598Z,100639.78
2019-05-23T03:54:16.148Z,100639.64
2019-05-23T03:59:22.658Z,100636.84
2019-05-23T04:04:28.266Z,100634.90
2019-05-23T04:09:33.891Z,100627.56
2019-05-23T04:14:39.406Z,100641.06
2019-05-23T04:19:44.761Z,100638.88
2019-05-23T04:24:50.153Z,100638.88
2019-05-23T04:29:55.731Z,100637.36
2019-05-23T04:35:01.480Z,100637.36
2019-05-23T04:40:12.151Z,100633.77
2019-05-23T04:45:17.803Z,100632.05
2019-05-23T04:50:23.326Z,100635.71
2019-05-23T04:55:29.571Z,100639.25
2019-05-23T05:00:36.120Z,100639.25
2019-05-23T05:05:41.859Z,100642.83
2019-05-23T05:10:48.419Z,100646.70
2019-05-23T05:15:55.764Z,100646.17
2019-05-23T05:21:01.429Z,100646.17
2019-05-23T05:26:09.650Z,100643.91
2019-05-23T05:31:15.267Z,100643.91
2019-05-23T05:36:20.609Z,100644.34
2019-05-23T05:41:26.882Z,100642.61
2019-05-23T05:46:33.245Z,100649.27
2019-05-23T05:51:39.163Z,100653.30
2019-05-23T05:56:44.488Z,100658.84
2019-05-23T06:01:49.961Z,100658.84
2019-05-23T06:06:57.311Z,100654.31
2019-05-23T06:12:03.222Z,100654.31
2019-05-23T06:17:10.718Z,100655.39
2019-05-23T06:22:18.290Z,100653.09
2019-05-23T06:27:24.929Z,100653.09
2019-05-23T06:32:31.665Z,100649.98
2019-05-23T06:37:37.395Z,100645.98
2019-05-23T06:42:42.892Z,100645.98
2019-05-23T06:47:48.444Z,100633.57
2019-05-23T06:52:53.884Z,100633.57
2019-05-23T06:57:59.967Z,100638.48
2019-05-23T07:03:07.648Z,100643.94
2019-05-23T07:08:14.144Z,100649.79
2019-05-23T07:13:20.692Z,100655.55
2019-05-23T07:18:26.489Z,100655.95
2019-05-23T07:23:32.308Z,100655.31
2019-05-23T07:28:38.777Z,100655.31
2019-05-23T07:34:00.258Z,100655.94
2019-05-23T07:38:51.477Z,100658.14
2019-05-23T07:43:57.068Z,100655.34
2019-05-23T07:49:02.811Z,100650.84
2019-05-23T07:54:18.843Z,100654.22
2019-05-23T07:59:24.327Z,100651.20
2019-05-23T08:04:29.898Z,100649.20
2019-05-23T08:09:35.745Z,100649.20
2019-05-23T08:14:41.022Z,100646.78
2019-05-23T08:19:49.617Z,100650.16
2019-05-23T08:24:53.855Z,100650.16
2019-05-23T08:30:02.084Z,100649.84
2019-05-23T08:35:08.742Z,100649.84
2019-05-23T08:40:15.901Z,100630.00
2019-05-23T08:45:22.164Z,100630.00
2019-05-23T08:50:28.756Z,100626.17
2019-05-23T08:55:34.620Z,100609.63
2019-05-23T09:00:42.312Z,100618.84
2019-05-23T09:05:50.441Z,100618.84
2019-05-23T09:10:56.195Z,100615.00
2019-05-23T09:16:02.874Z,100614.23
2019-05-23T09:21:08.844Z,100614.23
2019-05-23T09:26:14.416Z,100608.75
2019-05-23T09:31:23.184Z,100612.60
2019-05-23T09:36:28.491Z,100608.90
2019-05-23T09:41:34.119Z,100589.27
2019-05-23T09:46:39.507Z,100603.38
2019-05-23T09:51:46.785Z,100603.38
2019-05-23T09:56:53.007Z,100589.91
2019-05-23T10:01:59.174Z,100589.91
2019-05-23T10:07:04.952Z,100574.01
2019-05-23T10:12:10.262Z,100577.81
2019-05-23T10:17:16.041Z,100581.23
2019-05-23T10:22:21.651Z,100581.23
2019-05-23T10:27:27.192Z,100572.02
2019-05-23T10:32:32.730Z,100553.75
2019-05-23T10:37:38.519Z,100553.75
2019-05-23T10:42:44.450Z,100557.66
2019-05-23T10:47:50.131Z,100544.42
2019-05-23T10:52:55.859Z,100547.31
2019-05-23T10:58:02.069Z,100532.37
2019-05-23T11:03:09.487Z,100534.86
2019-05-23T11:08:15.297Z,100524.44
2019-05-23T11:13:20.949Z,100524.44
2019-05-23T11:18:26.456Z,100523.58
2019-05-23T11:23:42.651Z,100519.10
2019-05-23T11:28:48.434Z,100519.10
2019-05-23T11:33:54.041Z,100522.08
2019-05-23T11:38:59.600Z,100514.13
2019-05-23T11:44:05.887Z,100514.13
2019-05-23T11:49:12.052Z,100502.09
2019-05-23T11:54:17.478Z,100502.09
2019-05-23T11:59:22.800Z,100490.83
2019-05-23T12:04:28.483Z,100490.83
2019-05-23T12:09:34.407Z,100478.67
2019-05-23T12:14:41.261Z,100478.67
2019-05-23T12:19:46.928Z,100466.07
2019-05-23T12:24:52.320Z,100466.07
2019-05-23T12:29:57.859Z,100465.95
2019-05-23T12:35:11.252Z,100446.48
2019-05-23T12:40:12.638Z,100446.48
2019-05-23T12:45:18.493Z,100442.75
2019-05-23T12:50:25.904Z,100442.75
2019-05-23T12:55:31.633Z,100422.19
2019-05-23T13:00:42.956Z,100430.82
2019-05-23T13:05:48.768Z,100431.20
2019-05-23T13:10:54.403Z,100431.20
2019-05-23T13:15:59.795Z,100416.98
2019-05-23T13:21:05.482Z,100416.98
2019-05-23T13:26:11.401Z,100416.34
2019-05-23T13:31:16.843Z,100407.96
2019-05-23T13:36:22.279Z,100411.18
2019-05-23T13:41:28.154Z,100414.45
2019-05-23T13:46:34.246Z,100410.25
2019-05-23T13:51:39.940Z,100410.25
2019-05-23T13:56:47.787Z,100393.84
2019-05-23T14:01:55.640Z,100388.01
2019-05-23T14:07:00.833Z,100388.01
2019-05-23T14:12:20.813Z,100377.41
2019-05-23T14:17:30.518Z,100372.09
2019-05-23T14:22:37.811Z,100354.49
2019-05-23T14:27:54.030Z,100354.49
2019-05-23T14:33:01.456Z,100346.18
2019-05-23T14:38:08.551Z,100341.16
2019-05-23T14:43:21.500Z,100331.70
2019-05-23T14:48:34.980Z,100331.70
2019-05-23T14:53:54.166Z,100330.62
2019-05-23T14:58:59.510Z,100318.32
2019-05-23T15:04:06.780Z,100314.12
2019-05-23T15:09:12.536Z,100309.64
2019-05-23T15:14:17.762Z,100309.64
2019-05-23T15:19:39.930Z,100307.70
2019-05-23T15:24:30.728Z,100307.70
2019-05-23T15:29:36.397Z,100302.94
2019-05-23T15:34:41.619Z,100307.87
2019-05-23T15:39:47.035Z,100298.45
2019-05-23T15:44:53.935Z,100298.45
2019-05-23T15:50:01.084Z,100296.53
2019-05-23T15:55:28.517Z,100281.97
2019-05-23T16:00:51.876Z,100273.02
2019-05-23T16:05:58.910Z,100278.56
2019-05-23T16:11:04.612Z,100280.55
2019-05-23T16:16:10.401Z,100280.55
2019-05-23T16:21:17.178Z,100265.34
2019-05-23T16:26:22.802Z,100263.39
2019-05-23T16:31:28.554Z,100266.66
2019-05-23T16:36:34.081Z,100266.66
2019-05-23T16:41:39.527Z,100269.30
2019-05-23T16:46:45.163Z,100268.63
2019-05-23T16:51:50.652Z,100267.63
2019-05-23T16:57:15.963Z,100267.63
2019-05-23T17:02:29.085Z,100262.18
2019-05-23T17:07:52.351Z,100253.37
2019-05-23T17:12:59.319Z,100253.37
2019-05-23T17:18:09.086Z,100246.73
2019-05-23T17:23:16.108Z,100246.73
2019-05-23T17:28:26.160Z,100237.09
2019-05-23T17:33:36.707Z,100234.42
2019-05-23T17:38:40.198Z,100231.60
2019-05-23T17:43:45.944Z,100223.17
2019-05-23T17:48:51.601Z,100227.52
2019-05-23T17:53:57.090Z,100227.52
2019-05-23T17:59:02.785Z,100226.45
2019-05-23T18:04:09.408Z,100226.45
2019-05-23T18:09:16.015Z,100229.48
2019-05-23T18:14:21.507Z,100233.14
2019-05-23T18:19:27.426Z,100233.14
2019-05-23T18:24:33.769Z,100239.73
2019-05-23T18:29:39.753Z,100234.61
2019-05-23T18:34:45.857Z,100242.80
2019-05-23T18:39:53.162Z,100242.80
2019-05-23T18:44:59.974Z,100241.36
2019-05-23T18:50:08.259Z,100244.87
2019-05-23T18:55:14.233Z,100254.97
2019-05-23T19:00:22.599Z,100252.17
2019-05-23T19:05:28.887Z,100251.45
2019-05-23T19:10:35.468Z,100254.95
2019-05-23T19:15:42.081Z,100259.55
2019-05-23T19:20:48.044Z,100261.16
2019-05-23T19:25:55.324Z,100269.09
2019-05-23T19:31:00.782Z,100269.09
2019-05-23T19:36:06.828Z,100274.27
2019-05-23T19:41:12.956Z,100274.36
2019-05-23T19:46:19.637Z,100274.36
2019-05-23T19:51:26.849Z,100271.23
2019-05-23T19:56:32.569Z,100269.98
2019-05-23T20:01:39.884Z,100259.06
2019-05-23T20:06:45.913Z,100259.06
2019-05-23T20:11:54.231Z,100266.44
2019-05-23T20:16:58.528Z,100259.92
2019-05-23T20:22:03.956Z,100253.45
2019-05-23T20:27:09.513Z,100255.34
2019-05-23T20:32:14.859Z,100252.98
2019-05-23T20:37:20.290Z,100252.28
2019-05-23T20:42:25.817Z,100244.72
2019-05-23T20:47:31.747Z,100244.72
2019-05-23T20:52:37.288Z,100248.30
2019-05-23T20:57:42.719Z,100259.00
2019-05-23T21:02:48.497Z,100263.36
2019-05-23T21:07:53.994Z,100259.76
2019-05-23T21:12:59.581Z,100257.13
2019-05-23T21:18:05.911Z,100260.41
2019-05-23T21:23:11.709Z,100263.63
2019-05-23T21:28:17.411Z,100264.09
2019-05-23T21:33:23.420Z,100263.93
2019-05-23T21:38:29.177Z,100263.93
2019-05-23T21:43:34.507Z,100263.28
2019-05-23T21:48:39.984Z,100253.84
2019-05-23T21:53:45.632Z,100253.84
2019-05-23T21:58:51.077Z,100252.89
2019-05-23T22:04:00.872Z,100252.89
2019-05-23T22:09:09.215Z,100248.26
2019-05-23T22:14:14.935Z,100248.26
2019-05-23T22:19:22.211Z,100251.11
2019-05-23T22:24:27.591Z,100251.11
2019-05-23T22:29:32.981Z,100242.09
2019-05-23T22:34:46.417Z,100235.25
2019-05-23T22:39:51.873Z,100239.22
2019-05-23T22:44:57.339Z,100239.22
2019-05-23T22:50:03.038Z,100226.53
2019-05-23T22:55:08.460Z,100226.53
2019-05-23T23:00:15.778Z,100213.04
2019-05-23T23:05:21.141Z,100225.61
2019-05-23T23:10:26.590Z,100224.34
2019-05-23T23:15:32.761Z,100219.16
2019-05-23T23:20:38.355Z,100216.92
2019-05-23T23:25:44.031Z,100214.39
2019-05-23T23:30:50.922Z,100206.73
2019-05-23T23:35:56.688Z,100198.69
2019-05-23T23:41:02.268Z,100211.38
2019-05-23T23:46:26.039Z,100203.37
2019-05-23T23:51:49.059Z,100206.47
2019-05-23T23:57:12.692Z,100201.27
